Orleans, Massachusetts
Current Conditions -  °F | °C
As of 8:13 AM on Friday 24 Oct 2014 (Local Time) from KCQX Reporting Station
Light Rain Light Rain  
Wind Chill: 44°   Ceiling: 800
Heat Index: 49°   Visibility: 2mi
Dew Point: 49°   Wind: 13mph
Humidity: 100%   Direction: 340°NNW
Pressure: 29.62"   Gusts: 23mph
Location:  41.79°N, 69.99°W
Report Text: KCQX 241213Z AUTO 34011G20KT 320V020 2SM -RA BR BKN008 OVC011 09/09 A2962 RMK AO2 RAB03 P0000 T00940094
Loading
Personal Weather Stations






























Interactive Weather Map
Tropical Storm Tracking
New forecast layout! Learn more

10-Day Weather Forecast

Advertisements
Track Severe Weather on mobile